Time;durP1;ratioP1;P1;durP2;ratioP2;P2;SDS_P1;SDS_P2;PMS_P1;PMS_P2;Temp;Humidity;BMP_temperature;BMP_pressure;BME280_temperature;BME280_humidity;BME280_pressure;Samples;Min_cycle;Max_cycle;Signal;HPM_P1;HPM_P2
2021/08/16 00:02:05;;;;;;;0.00;0.00;;;20.90;73.30;;;;;;4993434;28;20121;-89
2021/08/16 00:04:31;;;;;;;0.00;0.00;;;20.80;73.40;;;;;;4993364;28;20026;-89
2021/08/16 00:06:57;;;;;;;0.03;0.03;;;20.70;73.80;;;;;;4995100;28;20054;-88
2021/08/16 00:09:23;;;;;;;0.00;0.00;;;20.70;74.00;;;;;;4993109;28;20034;-88
2021/08/16 00:11:49;;;;;;;0.08;0.08;;;20.60;74.10;;;;;;4993358;28;20110;-90
2021/08/16 00:14:14;;;;;;;0.00;0.00;;;20.60;74.50;;;;;;4994419;28;20069;-89
2021/08/16 00:16:40;;;;;;;0.00;0.00;;;20.60;74.80;;;;;;4993321;28;20026;-88
2021/08/16 00:19:06;;;;;;;0.00;0.00;;;20.50;74.90;;;;;;4993000;28;20045;-88
2021/08/16 00:21:32;;;;;;;0.00;0.00;;;20.50;75.20;;;;;;4992817;28;20030;-89
2021/08/16 00:23:58;;;;;;;0.00;0.00;;;20.40;75.40;;;;;;4993169;28;20026;-89
2021/08/16 00:26:23;;;;;;;0.00;0.00;;;20.40;75.70;;;;;;4993086;28;20034;-89
2021/08/16 00:28:49;;;;;;;0.00;0.00;;;20.40;76.10;;;;;;4993021;28;20049;-89
2021/08/16 00:31:15;;;;;;;0.00;0.00;;;20.30;76.30;;;;;;4994397;28;20030;-88
2021/08/16 00:33:41;;;;;;;0.00;0.00;;;20.20;76.50;;;;;;4993022;28;20035;-88
2021/08/16 00:36:07;;;;;;;0.00;0.00;;;20.20;76.80;;;;;;4993326;28;20026;-88
2021/08/16 00:38:33;;;;;;;0.00;0.00;;;20.20;76.90;;;;;;4993376;28;20484;-88
2021/08/16 00:41:00;;;;;;;0.10;0.10;;;20.10;77.30;;;;;;4993615;28;20057;-89
2021/08/16 00:43:25;;;;;;;0.08;0.08;;;20.10;77.30;;;;;;4993136;28;20439;-88
2021/08/16 00:45:52;;;;;;;0.03;0.03;;;20.20;77.50;;;;;;4993452;28;20030;-88
2021/08/16 00:48:18;;;;;;;0.00;0.00;;;20.10;77.70;;;;;;4995746;28;20026;-88
2021/08/16 00:50:45;;;;;;;0.00;0.00;;;20.00;78.00;;;;;;4992805;28;20384;-88
2021/08/16 00:53:12;;;;;;;0.10;0.10;;;20.00;78.40;;;;;;4994229;28;20052;-89
2021/08/16 00:55:38;;;;;;;0.10;0.10;;;19.90;78.30;;;;;;4992676;28;20030;-88
2021/08/16 00:58:04;;;;;;;0.00;0.00;;;19.90;78.50;;;;;;4992599;28;20180;-88
2021/08/16 01:00:31;;;;;;;0.10;0.10;;;19.90;78.60;;;;;;4993603;28;20125;-88
2021/08/16 01:02:57;;;;;;;0.00;0.00;;;19.90;78.80;;;;;;4996703;28;20030;-88
2021/08/16 01:05:23;;;;;;;0.10;0.10;;;19.90;78.80;;;;;;4996448;28;20030;-88
2021/08/16 01:07:49;;;;;;;0.00;0.00;;;19.90;79.10;;;;;;4996507;28;20117;-88
2021/08/16 01:10:16;;;;;;;0.10;0.10;;;19.80;79.40;;;;;;4996380;28;20476;-89
2021/08/16 01:12:42;;;;;;;0.00;0.00;;;19.80;79.40;;;;;;4996819;28;20042;-88
2021/08/16 01:15:11;;;;;;;0.10;0.10;;;19.80;79.60;;;;;;4996363;28;20033;-88
2021/08/16 01:17:38;;;;;;;0.00;0.00;;;19.80;79.80;;;;;;4996270;28;20042;-88
2021/08/16 01:20:07;;;;;;;0.00;0.00;;;19.70;80.00;;;;;;4997548;28;20049;-88
2021/08/16 01:22:33;;;;;;;0.00;0.00;;;19.70;80.40;;;;;;4996233;28;20050;-88
2021/08/16 01:25:00;;;;;;;0.05;0.05;;;19.70;80.60;;;;;;4996154;28;20018;-89
2021/08/16 01:27:25;;;;;;;0.10;0.10;;;19.70;80.70;;;;;;4996146;28;20373;-88
2021/08/16 01:30:07;;;;;;;0.00;0.00;;;19.70;81.00;;;;;;4996160;28;20029;-90
2021/08/16 01:32:33;;;;;;;0.00;0.00;;;19.70;81.20;;;;;;4997604;28;20034;-90
2021/08/16 01:34:59;;;;;;;0.00;0.00;;;19.60;81.30;;;;;;4996041;28;20054;-88
2021/08/16 01:37:25;;;;;;;0.00;0.00;;;19.60;81.30;;;;;;4995934;28;20034;-89
2021/08/16 01:39:50;;;;;;;0.10;0.10;;;19.60;81.40;;;;;;4995978;28;20023;-88
2021/08/16 01:42:16;;;;;;;0.00;0.00;;;19.60;81.70;;;;;;4996304;28;20037;-89
2021/08/16 01:44:42;;;;;;;0.00;0.00;;;19.60;81.70;;;;;;4995969;28;20361;-89
2021/08/16 01:47:08;;;;;;;0.00;0.00;;;19.60;81.80;;;;;;4996112;28;20036;-88
2021/08/16 01:49:33;;;;;;;0.00;0.00;;;19.60;82.00;;;;;;4995824;28;20031;-88
2021/08/16 01:51:59;;;;;;;0.00;0.00;;;19.50;82.00;;;;;;4996020;28;20077;-88
2021/08/16 01:54:25;;;;;;;0.00;0.00;;;19.50;82.30;;;;;;4995628;28;20030;-88
2021/08/16 01:56:51;;;;;;;0.10;0.10;;;19.50;82.40;;;;;;4995959;28;20117;-88
2021/08/16 01:59:17;;;;;;;0.00;0.00;;;19.50;83.00;;;;;;4995489;28;20042;-88
2021/08/16 02:01:42;;;;;;;0.00;0.00;;;19.50;83.00;;;;;;4995755;28;20030;-88
2021/08/16 02:04:08;;;;;;;0.00;0.00;;;19.50;82.50;;;;;;4995547;28;20456;-88
2021/08/16 02:06:34;;;;;;;0.00;0.00;;;19.50;82.40;;;;;;4995419;28;20495;-88
2021/08/16 02:09:00;;;;;;;0.00;0.00;;;19.50;82.50;;;;;;4995628;28;20030;-88
2021/08/16 02:11:26;;;;;;;0.10;0.10;;;19.40;82.40;;;;;;4996850;28;20022;-88
2021/08/16 02:13:52;;;;;;;0.10;0.10;;;19.50;82.70;;;;;;4994665;28;20070;-88
2021/08/16 02:16:17;;;;;;;0.10;0.10;;;19.40;82.80;;;;;;4995384;28;20025;-88
2021/08/16 02:18:43;;;;;;;0.00;0.00;;;19.40;82.80;;;;;;4995214;28;20097;-89
2021/08/16 02:21:09;;;;;;;0.00;0.00;;;19.40;83.00;;;;;;4995303;28;20033;-88
2021/08/16 02:23:35;;;;;;;0.03;0.03;;;19.40;83.30;;;;;;4995340;28;20058;-88
2021/08/16 02:26:00;;;;;;;0.10;0.10;;;19.40;83.70;;;;;;4996556;28;20034;-89
2021/08/16 02:28:27;;;;;;;0.00;0.00;;;19.30;84.20;;;;;;4995077;28;20058;-88
2021/08/16 02:30:53;;;;;;;0.00;0.00;;;19.20;84.80;;;;;;5010875;28;20026;-88
2021/08/16 02:33:19;;;;;;;0.10;0.10;;;19.20;85.30;;;;;;4995068;28;20023;-88
2021/08/16 02:35:45;;;;;;;0.00;0.00;;;19.20;85.50;;;;;;4994980;28;20038;-88
2021/08/16 02:38:12;;;;;;;0.00;0.00;;;19.10;85.80;;;;;;4995544;28;20045;-89
2021/08/16 02:40:38;;;;;;;0.00;0.00;;;19.10;86.20;;;;;;4995015;28;20060;-89
2021/08/16 02:43:04;;;;;;;0.10;0.10;;;19.10;86.50;;;;;;4996171;28;20026;-88
2021/08/16 02:45:30;;;;;;;0.00;0.00;;;19.10;86.50;;;;;;4994931;28;20034;-88
2021/08/16 02:47:56;;;;;;;0.00;0.00;;;19.00;86.70;;;;;;4996212;28;20026;-89
2021/08/16 02:50:22;;;;;;;0.05;0.05;;;19.00;87.20;;;;;;4995834;28;20041;-88
2021/08/16 02:52:48;;;;;;;0.10;0.10;;;18.90;87.60;;;;;;4996292;28;20018;-90
2021/08/16 02:55:14;;;;;;;0.10;0.10;;;18.90;88.10;;;;;;5004884;28;20098;-88
2021/08/16 02:57:40;;;;;;;0.10;0.10;;;18.90;88.90;;;;;;5015318;28;20045;-87
2021/08/16 03:00:07;;;;;;;0.00;0.00;;;18.90;89.40;;;;;;5018748;28;20439;-88
2021/08/16 03:02:33;;;;;;;0.00;0.00;;;18.80;89.60;;;;;;5017287;28;20369;-88
2021/08/16 03:04:59;;;;;;;0.10;0.10;;;18.80;90.00;;;;;;5003823;28;20038;-89
2021/08/16 03:07:24;;;;;;;0.10;0.10;;;18.80;90.10;;;;;;4994646;28;20038;-88
2021/08/16 03:09:50;;;;;;;0.00;0.00;;;18.80;90.20;;;;;;4994343;28;20030;-89
2021/08/16 03:12:18;;;;;;;0.10;0.10;;;18.80;90.30;;;;;;4994875;28;20392;-88
2021/08/16 03:14:44;;;;;;;0.00;0.00;;;18.80;90.40;;;;;;4995341;28;20038;-89
2021/08/16 03:17:10;;;;;;;0.00;0.00;;;18.80;90.40;;;;;;4994404;28;20056;-88
2021/08/16 03:19:36;;;;;;;0.00;0.00;;;18.80;90.40;;;;;;4996119;28;20066;-88
2021/08/16 03:22:01;;;;;;;0.08;0.08;;;18.80;90.30;;;;;;4994325;28;20063;-88
2021/08/16 03:24:28;;;;;;;0.10;0.10;;;18.90;90.30;;;;;;4992943;28;20030;-89
2021/08/16 03:26:53;;;;;;;0.00;0.00;;;18.90;90.20;;;;;;4994526;28;20383;-89
2021/08/16 03:29:19;;;;;;;0.08;0.08;;;19.00;90.10;;;;;;4994599;28;20054;-89
2021/08/16 03:31:45;;;;;;;0.10;0.10;;;19.00;89.90;;;;;;4997287;28;20089;-92
2021/08/16 03:34:11;;;;;;;0.00;0.00;;;19.10;89.70;;;;;;4993779;28;20026;-90
2021/08/16 03:36:37;;;;;;;0.08;0.08;;;19.10;89.80;;;;;;4994052;28;20435;-89
2021/08/16 03:39:03;;;;;;;0.00;0.00;;;19.10;89.80;;;;;;4993677;28;20038;-88
2021/08/16 03:41:30;;;;;;;0.00;0.00;;;19.10;89.90;;;;;;4993867;28;20026;-91
2021/08/16 03:43:55;;;;;;;0.00;0.00;;;19.10;90.00;;;;;;4993778;28;20027;-88
2021/08/16 03:46:21;;;;;;;0.03;0.03;;;19.10;90.00;;;;;;4993649;28;20141;-88
2021/08/16 03:48:47;;;;;;;0.00;0.00;;;19.20;90.10;;;;;;4993735;28;20034;-88
2021/08/16 03:51:13;;;;;;;0.10;0.10;;;19.20;90.10;;;;;;4993533;28;20030;-89
2021/08/16 03:53:39;;;;;;;0.10;0.10;;;19.20;90.00;;;;;;4993355;28;20069;-88
2021/08/16 03:56:06;;;;;;;0.00;0.00;;;19.30;89.90;;;;;;4992902;28;20169;-88
2021/08/16 03:58:33;;;;;;;0.00;0.00;;;19.50;89.30;;;;;;4992159;28;20046;-88
2021/08/16 04:00:59;;;;;;;0.00;0.00;;;19.60;88.50;;;;;;4993571;28;20467;-88
2021/08/16 04:03:25;;;;;;;0.00;0.00;;;19.70;87.90;;;;;;4993809;28;20026;-88
2021/08/16 04:05:51;;;;;;;0.00;0.00;;;19.80;87.40;;;;;;4993559;28;20026;-89
2021/08/16 04:08:16;;;;;;;0.00;0.00;;;19.90;86.90;;;;;;4993388;28;20041;-88
2021/08/16 04:10:42;;;;;;;0.00;0.00;;;20.00;86.20;;;;;;4993295;28;20482;-88
2021/08/16 04:13:08;;;;;;;0.00;0.00;;;20.10;85.80;;;;;;4994303;28;20030;-88
2021/08/16 04:15:33;;;;;;;0.00;0.00;;;20.10;85.10;;;;;;4993364;28;20022;-87
2021/08/16 04:17:59;;;;;;;0.00;0.00;;;20.20;84.90;;;;;;4993813;28;20046;-88
2021/08/16 04:20:25;;;;;;;0.00;0.00;;;20.40;84.40;;;;;;4994665;28;20023;-87
2021/08/16 04:22:51;;;;;;;0.00;0.00;;;20.50;83.40;;;;;;4993353;28;20038;-88
2021/08/16 04:25:18;;;;;;;0.00;0.00;;;20.70;82.60;;;;;;4993080;28;20038;-89
2021/08/16 04:27:44;;;;;;;0.00;0.00;;;20.70;82.10;;;;;;4992788;28;20053;-88
2021/08/16 04:30:12;;;;;;;0.00;0.00;;;20.70;82.20;;;;;;4992872;28;20037;-88
2021/08/16 04:32:38;;;;;;;0.00;0.00;;;20.80;82.00;;;;;;4994520;28;20534;-88
2021/08/16 04:35:05;;;;;;;0.00;0.00;;;20.90;82.50;;;;;;4992754;28;20031;-88
2021/08/16 04:37:38;;;;;;;0.00;0.00;;;21.00;81.50;;;;;;4993050;28;20042;-88
2021/08/16 04:40:05;;;;;;;0.00;0.00;;;21.10;81.10;;;;;;4993102;28;20034;-88
2021/08/16 04:42:31;;;;;;;0.00;0.00;;;21.30;80.80;;;;;;4992781;28;20022;-87
2021/08/16 04:44:57;;;;;;;0.00;0.00;;;21.40;80.20;;;;;;4992532;28;20041;-88
2021/08/16 04:47:23;;;;;;;0.00;0.00;;;21.60;79.80;;;;;;4993239;28;20026;-88
2021/08/16 04:49:49;;;;;;;0.00;0.00;;;21.80;79.20;;;;;;4992950;28;20027;-91
2021/08/16 04:52:15;;;;;;;0.00;0.00;;;21.90;78.60;;;;;;4993253;28;20080;-89
2021/08/16 04:54:41;;;;;;;0.00;0.00;;;22.00;78.30;;;;;;4992965;28;20030;-88
2021/08/16 04:57:06;;;;;;;0.05;0.05;;;22.10;78.30;;;;;;4992867;28;20031;-88
2021/08/16 04:59:32;;;;;;;0.00;0.00;;;22.30;78.00;;;;;;4992581;28;20031;-88
2021/08/16 05:01:58;;;;;;;0.00;0.00;;;22.50;77.90;;;;;;4992448;28;20031;-89
2021/08/16 05:04:24;;;;;;;0.03;0.03;;;22.80;77.70;;;;;;4994732;28;20090;-89
2021/08/16 05:06:49;;;;;;;0.00;0.00;;;23.20;77.50;;;;;;4992633;28;20026;-87
2021/08/16 05:09:15;;;;;;;0.08;0.08;;;23.80;77.20;;;;;;4992602;28;20026;-88
2021/08/16 05:11:41;;;;;;;0.00;0.00;;;24.40;76.50;;;;;;4993018;28;20030;-90
2021/08/16 05:14:07;;;;;;;0.00;0.00;;;25.00;75.20;;;;;;4992997;28;20088;-90
2021/08/16 05:16:35;;;;;;;0.00;0.00;;;25.50;73.50;;;;;;4993851;28;20022;-88
2021/08/16 05:19:01;;;;;;;0.00;0.00;;;26.00;71.60;;;;;;4991527;28;20070;-89
2021/08/16 05:21:29;;;;;;;0.00;0.00;;;26.30;70.20;;;;;;4992634;28;20553;-88
2021/08/16 05:23:55;;;;;;;0.00;0.00;;;26.70;69.40;;;;;;4992460;28;20062;-89
2021/08/16 05:26:21;;;;;;;0.00;0.00;;;27.00;68.10;;;;;;4992195;28;20117;-88
2021/08/16 05:28:47;;;;;;;0.00;0.00;;;27.50;67.10;;;;;;4992403;28;20476;-89
2021/08/16 05:31:12;;;;;;;0.00;0.00;;;27.80;66.30;;;;;;4993629;28;20031;-89
2021/08/16 05:33:38;;;;;;;0.00;0.00;;;28.30;65.80;;;;;;4993041;28;20031;-88
2021/08/16 05:36:04;;;;;;;0.00;0.00;;;28.70;63.80;;;;;;4993167;28;20035;-90
2021/08/16 05:38:30;;;;;;;0.00;0.00;;;29.00;63.00;;;;;;4992294;28;20045;-88
2021/08/16 05:40:56;;;;;;;0.00;0.00;;;29.30;62.30;;;;;;4992892;28;20061;-89
2021/08/16 05:43:22;;;;;;;0.00;0.00;;;29.80;61.90;;;;;;4992494;28;20066;-88
2021/08/16 05:45:47;;;;;;;0.00;0.00;;;30.20;60.70;;;;;;4992743;28;20029;-88
2021/08/16 05:48:17;;;;;;;0.00;0.00;;;30.40;59.80;;;;;;4996012;28;20022;-89
2021/08/16 05:50:43;;;;;;;0.00;0.00;;;30.80;59.30;;;;;;4996141;28;20479;-88
2021/08/16 05:53:09;;;;;;;0.00;0.00;;;31.10;58.00;;;;;;4997384;28;20415;-90
2021/08/16 05:55:35;;;;;;;0.00;0.00;;;31.30;57.60;;;;;;4996610;28;20027;-91
2021/08/16 05:58:00;;;;;;;0.00;0.00;;;31.50;56.40;;;;;;4996154;28;20061;-89
2021/08/16 06:00:26;;;;;;;0.00;0.00;;;31.70;56.30;;;;;;4995313;28;20037;-88
2021/08/16 06:02:52;;;;;;;0.00;0.00;;;32.10;56.00;;;;;;4994605;28;20037;-91
2021/08/16 06:05:17;;;;;;;0.00;0.00;;;32.60;55.50;;;;;;4995412;28;20507;-88
2021/08/16 06:07:43;;;;;;;0.00;0.00;;;32.90;54.40;;;;;;4994900;28;20027;-89
2021/08/16 06:10:12;;;;;;;0.00;0.00;;;33.10;53.90;;;;;;4994108;28;20145;-90
2021/08/16 06:12:37;;;;;;;0.00;0.00;;;33.50;53.30;;;;;;4995060;28;20031;-88
2021/08/16 06:15:03;;;;;;;0.00;0.00;;;33.90;52.60;;;;;;4995332;28;20049;-88
2021/08/16 06:17:30;;;;;;;0.00;0.00;;;34.10;52.00;;;;;;4993867;28;20395;-89
2021/08/16 06:19:55;;;;;;;0.00;0.00;;;34.20;51.20;;;;;;4993137;28;20117;-89
2021/08/16 06:22:21;;;;;;;0.00;0.00;;;34.40;50.80;;;;;;4994272;28;20446;-89
2021/08/16 06:24:47;;;;;;;0.00;0.00;;;34.60;50.00;;;;;;4993888;28;20029;-89
2021/08/16 06:27:13;;;;;;;0.00;0.00;;;34.90;49.70;;;;;;4994456;28;20534;-89
2021/08/16 06:29:39;;;;;;;0.00;0.00;;;35.20;49.50;;;;;;4995592;28;20053;-90
2021/08/16 06:32:05;;;;;;;0.10;0.10;;;35.80;49.40;;;;;;4996216;28;20022;-91
2021/08/16 06:34:31;;;;;;;0.00;0.00;;;36.40;49.10;;;;;;4996066;28;20046;-89
2021/08/16 06:36:56;;;;;;;0.00;0.00;;;36.80;47.50;;;;;;4995276;28;20027;-89
2021/08/16 06:39:24;;;;;;;0.10;0.10;;;36.70;47.00;;;;;;4995664;28;20102;-90
2021/08/16 06:41:55;;;;;;;0.10;0.10;;;36.80;47.30;;;;;;4998986;28;20022;-90
2021/08/16 06:44:26;;;;;;;0.00;0.00;;;36.90;46.70;;;;;;4995583;28;20034;-89
2021/08/16 06:46:52;;;;;;;0.00;0.00;;;37.20;45.90;;;;;;4998511;28;20045;-90
2021/08/16 06:49:19;;;;;;;0.00;0.00;;;37.40;45.90;;;;;;4995756;28;20125;-90
2021/08/16 06:51:45;;;;;;;0.10;0.10;;;37.60;45.10;;;;;;4994556;28;20501;-89
2021/08/16 06:54:11;;;;;;;0.10;0.10;;;37.70;45.00;;;;;;4993228;28;20061;-91
2021/08/16 06:56:36;;;;;;;0.00;0.00;;;37.80;44.10;;;;;;5008398;28;20037;-89
2021/08/16 06:59:02;;;;;;;0.00;0.00;;;37.80;44.00;;;;;;5011388;28;20134;-90
2021/08/16 07:01:29;;;;;;;0.10;0.10;;;37.80;44.50;;;;;;4997247;28;20037;-93
2021/08/16 07:03:57;;;;;;;0.00;0.00;;;38.10;43.80;;;;;;5012577;28;20022;-90
2021/08/16 07:06:24;;;;;;;0.00;0.00;;;38.40;43.10;;;;;;4997725;28;20100;-89
2021/08/16 07:08:51;;;;;;;0.10;0.10;;;38.60;42.50;;;;;;4995899;28;20018;-89
2021/08/16 07:11:17;;;;;;;0.10;0.10;;;38.70;42.20;;;;;;4997067;28;20068;-91
2021/08/16 07:13:43;;;;;;;0.00;0.00;;;38.70;42.40;;;;;;5000959;28;20508;-91
2021/08/16 07:16:09;;;;;;;0.00;0.00;;;38.70;41.40;;;;;;4997888;28;20030;-89
2021/08/16 07:18:35;;;;;;;0.08;0.08;;;38.80;42.00;;;;;;4993134;28;20435;-91
2021/08/16 07:21:03;;;;;;;0.08;0.08;;;38.90;41.90;;;;;;4992537;28;20030;-91
2021/08/16 07:23:30;;;;;;;0.00;0.00;;;39.30;42.20;;;;;;4998546;28;20026;-94
2021/08/16 07:26:00;;;;;;;0.10;0.10;;;39.50;40.40;;;;;;5000031;28;20038;-93
2021/08/16 07:28:30;;;;;;;0.05;0.05;;;39.20;40.40;;;;;;4994416;28;20289;-91
2021/08/16 07:30:57;;;;;;;0.10;0.10;;;39.10;40.70;;;;;;4997488;28;20030;-92
2021/08/16 07:33:23;;;;;;;0.10;0.10;;;39.20;40.80;;;;;;4998465;28;20037;-92
2021/08/16 07:35:49;;;;;;;0.10;0.10;;;39.40;40.30;;;;;;4995675;28;20439;-92
2021/08/16 07:38:15;;;;;;;0.10;0.10;;;39.30;39.90;;;;;;4993980;28;20030;-90
2021/08/16 07:40:41;;;;;;;0.10;0.10;;;39.30;40.20;;;;;;4996685;28;20022;-89
2021/08/16 07:43:08;;;;;;;0.10;0.10;;;39.40;40.00;;;;;;4993707;28;20063;-91
2021/08/16 07:45:34;;;;;;;0.00;0.00;;;39.50;40.00;;;;;;4995112;28;20365;-92
2021/08/16 07:47:59;;;;;;;0.10;0.10;;;39.60;39.60;;;;;;4993311;28;20018;-91
2021/08/16 07:50:25;;;;;;;0.10;0.10;;;39.60;40.40;;;;;;4995515;28;20089;-94
2021/08/16 07:52:53;;;;;;;0.10;0.10;;;40.00;40.10;;;;;;4994105;28;20048;-90
2021/08/16 07:55:19;;;;;;;0.10;0.10;;;40.30;39.10;;;;;;4994633;28;20234;-91
2021/08/16 07:57:45;;;;;;;0.10;0.10;;;40.60;39.00;;;;;;4994984;28;20034;-90
2021/08/16 08:00:14;;;;;;;0.10;0.10;;;41.00;39.00;;;;;;4999520;28;20037;-94
2021/08/16 08:02:42;;;;;;;0.10;0.10;;;41.30;37.80;;;;;;4999765;28;20078;-91
2021/08/16 08:05:09;;;;;;;0.10;0.10;;;41.00;38.00;;;;;;4997986;28;20007;-93
2021/08/16 08:07:37;;;;;;;0.10;0.10;;;40.80;37.50;;;;;;4999626;28;20026;-93
2021/08/16 08:10:07;;;;;;;0.10;0.10;;;40.50;37.30;;;;;;4982501;28;20072;-93
2021/08/16 08:12:34;;;;;;;0.00;0.00;;;39.80;37.60;;;;;;4975248;28;20049;-90
2021/08/16 08:15:00;;;;;;;0.10;0.10;;;39.40;38.10;;;;;;4998976;28;20046;-91
2021/08/16 08:17:26;;;;;;;0.10;0.10;;;39.30;38.00;;;;;;5001926;28;20038;-91
2021/08/16 08:19:54;;;;;;;0.10;0.10;;;39.20;38.40;;;;;;5014925;28;20041;-91
2021/08/16 08:22:21;;;;;;;0.10;0.10;;;39.60;38.70;;;;;;5012925;28;20057;-92
2021/08/16 08:24:47;;;;;;;0.10;0.10;;;40.20;37.20;;;;;;4994288;28;20027;-88
2021/08/16 08:27:13;;;;;;;0.10;0.10;;;40.10;37.30;;;;;;4995105;28;20044;-92
2021/08/16 08:29:42;;;;;;;0.10;0.10;;;40.30;37.00;;;;;;4994336;28;20022;-90
2021/08/16 08:32:08;;;;;;;0.10;0.10;;;40.20;36.60;;;;;;4994909;28;20113;-91
2021/08/16 08:34:35;;;;;;;0.10;0.10;;;40.20;37.30;;;;;;4981272;28;20054;-92
2021/08/16 08:37:10;;;;;;;0.10;0.10;;;40.40;37.00;;;;;;5000774;28;20038;-93
2021/08/16 08:39:39;;;;;;;0.10;0.10;;;40.80;36.80;;;;;;4996998;28;20069;-90
2021/08/16 08:42:06;;;;;;;0.10;0.10;;;40.80;36.60;;;;;;4993878;28;20403;-92
2021/08/16 08:44:32;;;;;;;0.10;0.10;;;41.10;36.70;;;;;;4996945;28;20026;-92
2021/08/16 08:46:59;;;;;;;0.10;0.10;;;41.20;36.10;;;;;;4997064;28;20041;-91
2021/08/16 08:49:25;;;;;;;0.10;0.10;;;41.00;36.20;;;;;;4994258;28;20033;-91
2021/08/16 08:51:51;;;;;;;0.10;0.10;;;41.10;36.70;;;;;;4998476;28;20401;-92
2021/08/16 08:54:20;;;;;;;0.10;0.10;;;41.20;36.40;;;;;;5000721;28;20023;-92
2021/08/16 08:56:48;;;;;;;0.10;0.10;;;41.30;36.30;;;;;;4999565;28;20022;-93
2021/08/16 08:59:14;;;;;;;0.10;0.10;;;41.00;36.40;;;;;;4995658;28;20042;-91
2021/08/16 09:01:54;;;;;;;0.10;0.10;;;40.80;36.80;;;;;;4998471;28;20038;-93
2021/08/16 09:04:21;;;;;;;0.10;0.10;;;41.10;36.50;;;;;;4983747;28;20041;-93
2021/08/16 09:06:47;;;;;;;0.10;0.10;;;41.10;36.20;;;;;;4996542;28;20031;-90
2021/08/16 09:09:13;;;;;;;0.10;0.10;;;41.00;36.60;;;;;;4996228;28;20041;-93
2021/08/16 09:11:43;;;;;;;0.10;0.10;;;41.30;36.40;;;;;;4996564;28;20046;-92
2021/08/16 09:14:09;;;;;;;0.10;0.10;;;41.60;36.20;;;;;;4993042;28;20027;-92
2021/08/16 09:16:37;;;;;;;0.17;0.17;;;41.90;36.50;;;;;;5000831;28;20026;-91
2021/08/16 09:19:21;;;;;;;0.10;0.10;;;42.30;36.00;;;;;;4998326;28;20065;-93
2021/08/16 09:22:00;;;;;;;0.13;0.13;;;42.20;35.90;;;;;;4992421;28;20490;-91
2021/08/16 09:24:29;;;;;;;0.13;0.13;;;42.00;36.70;;;;;;5001525;28;20030;-93
2021/08/16 09:27:05;;;;;;;0.10;0.10;;;42.40;35.90;;;;;;4997280;28;20026;-91
2021/08/16 09:29:31;;;;;;;0.20;0.20;;;42.40;36.00;;;;;;4999402;28;20381;-91
2021/08/16 09:32:05;;;;;;;0.10;0.10;;;42.70;35.90;;;;;;5001475;28;20018;-93
2021/08/16 09:34:32;;;;;;;0.10;0.10;;;43.10;35.40;;;;;;4999553;28;20030;-91
2021/08/16 09:37:02;;;;;;;0.10;0.10;;;43.00;35.80;;;;;;4997992;28;20026;-91
2021/08/16 09:39:31;;;;;;;0.10;0.10;;;43.20;35.60;;;;;;5000503;28;20042;-91
2021/08/16 09:42:03;;;;;;;0.10;0.10;;;42.90;35.10;;;;;;4996677;28;20019;-90
2021/08/16 09:44:30;;;;;;;0.10;0.10;;;41.70;35.40;;;;;;4997720;28;20022;-90
2021/08/16 09:47:07;;;;;;;0.10;0.10;;;41.10;36.60;;;;;;4999327;28;20034;-93
2021/08/16 09:49:35;;;;;;;0.10;0.10;;;41.40;37.00;;;;;;5005026;28;20038;-93
2021/08/16 09:52:12;;;;;;;0.10;0.10;;;41.50;36.60;;;;;;4998870;28;20036;-91
2021/08/16 09:54:39;;;;;;;0.10;0.10;;;41.50;37.40;;;;;;4997197;28;20033;-91
2021/08/16 09:57:08;;;;;;;0.10;0.10;;;42.10;37.40;;;;;;4995071;28;20497;-92
2021/08/16 09:59:34;;;;;;;0.10;0.10;;;43.00;37.10;;;;;;4981218;28;20035;-91
2021/08/16 10:02:01;;;;;;;0.10;0.10;;;44.00;36.10;;;;;;5000698;28;20015;-90
2021/08/16 10:04:30;;;;;;;0.10;0.10;;;44.10;35.40;;;;;;5001950;28;20030;-90
2021/08/16 10:06:58;;;;;;;0.10;0.10;;;43.80;35.20;;;;;;4996090;28;20122;-92
2021/08/16 10:09:25;;;;;;;0.17;0.17;;;43.70;35.50;;;;;;5000344;28;20038;-93
2021/08/16 10:11:55;;;;;;;0.20;0.20;;;43.90;35.00;;;;;;5002081;28;20090;-93
2021/08/16 10:14:29;;;;;;;0.10;0.10;;;43.90;34.70;;;;;;5002558;28;20555;-90
2021/08/16 10:17:03;;;;;;;0.10;0.10;;;43.10;35.00;;;;;;5004672;28;20034;-92
2021/08/16 10:19:40;;;;;;;0.10;0.10;;;42.40;35.10;;;;;;4999109;28;20065;-92
2021/08/16 10:22:07;;;;;;;0.10;0.10;;;41.80;35.70;;;;;;4996312;28;20553;-90
2021/08/16 10:24:33;;;;;;;0.10;0.10;;;41.80;36.00;;;;;;4995291;28;20019;-89
2021/08/16 10:27:05;;;;;;;0.10;0.10;;;42.20;35.70;;;;;;4994786;28;20073;-91
2021/08/16 10:29:32;;;;;;;0.10;0.10;;;43.00;35.70;;;;;;4995601;28;20129;-91
2021/08/16 10:32:18;;;;;;;0.20;0.20;;;44.00;35.30;;;;;;4998052;28;20065;-92
2021/08/16 10:34:45;;;;;;;0.20;0.20;;;45.10;34.60;;;;;;5002612;28;20050;-92
2021/08/16 10:37:15;;;;;;;0.20;0.20;;;45.40;34.40;;;;;;4999656;28;20026;-90
2021/08/16 10:39:46;;;;;;;0.20;0.20;;;45.60;33.90;;;;;;4997448;28;20043;-93
2021/08/16 10:42:14;;;;;;;0.20;0.20;;;45.80;33.60;;;;;;5003962;28;20484;-93
2021/08/16 10:44:49;;;;;;;0.20;0.20;;;45.20;33.00;;;;;;5002142;28;20030;-93
2021/08/16 10:47:37;;;;;;;0.10;0.10;;;44.30;33.50;;;;;;4994258;23;20035;-90
2021/08/16 10:50:04;;;;;;;0.10;0.10;;;43.80;33.70;;;;;;4991908;28;20023;-90
2021/08/16 10:52:38;;;;;;;0.17;0.17;;;43.30;33.80;;;;;;4992587;28;20059;-89
2021/08/16 10:55:47;;;;;;;0.20;0.20;;;42.80;33.90;;;;;;4993680;28;20076;-89
2021/08/16 10:58:25;;;;;;;0.13;0.13;;;42.80;34.40;;;;;;4968681;28;20047;-90
2021/08/16 11:01:39;;;;;;;0.10;0.10;;;43.10;34.20;;;;;;4995730;28;20047;-92
2021/08/16 11:04:08;;;;;;;0.13;0.13;;;43.70;34.00;;;;;;4978331;28;20041;-88
2021/08/16 11:06:37;;;;;;;0.10;0.10;;;43.80;33.20;;;;;;4997406;28;20040;-89
2021/08/16 11:09:07;;;;;;;0.10;0.10;;;43.30;33.20;;;;;;4996792;28;20543;-88
2021/08/16 11:11:34;;;;;;;0.10;0.10;;;43.00;33.40;;;;;;4996373;28;20054;-89
2021/08/16 11:14:51;;;;;;;0.10;0.10;;;42.70;33.20;;;;;;4996576;28;20038;-89
2021/08/16 11:17:29;;;;;;;0.10;0.10;;;42.60;33.00;;;;;;4952708;28;20062;-90
2021/08/16 11:20:51;;;;;;;0.10;0.10;;;42.90;33.40;;;;;;4995511;28;20036;-91
2021/08/16 11:23:21;;;;;;;0.13;0.13;;;43.60;33.30;;;;;;4995140;23;20054;-92
2021/08/16 11:25:55;;;;;;;0.20;0.20;;;44.20;33.00;;;;;;4999706;28;20034;-91
2021/08/16 11:28:23;;;;;;;0.10;0.10;;;44.50;32.70;;;;;;5000378;28;20044;-92
2021/08/16 11:30:50;;;;;;;0.10;0.10;;;44.30;32.60;;;;;;4998087;28;20455;-91
2021/08/16 11:33:26;;;;;;;0.17;0.17;;;43.90;32.90;;;;;;5002714;28;20038;-91
2021/08/16 11:36:12;;;;;;;0.20;0.20;;;43.70;33.00;;;;;;4999296;28;20026;-91
2021/08/16 11:38:42;;;;;;;0.10;0.10;;;43.90;33.40;;;;;;4998174;28;20035;-93
2021/08/16 11:41:15;;;;;;;0.20;0.20;;;44.40;33.40;;;;;;4996030;28;20113;-91
2021/08/16 11:46:13;;;;;;;0.20;0.20;;;44.70;32.60;;;;;;4977063;28;20047;-91
2021/08/16 11:48:49;;;;;;;0.20;0.20;;;44.90;32.80;;;;;;4961347;28;20031;-92
2021/08/16 11:51:15;;;;;;;0.17;0.17;;;45.30;32.60;;;;;;4961469;28;20035;-92
2021/08/16 11:53:45;;;;;;;0.20;0.20;;;45.40;32.20;;;;;;4962918;28;20085;-90
2021/08/16 11:56:12;;;;;;;0.20;0.20;;;45.30;31.80;;;;;;4963034;28;20026;-90
2021/08/16 11:58:40;;;;;;;0.10;0.10;;;44.90;32.10;;;;;;4964318;28;20046;-91
2021/08/16 12:01:08;;;;;;;0.10;0.10;;;44.30;32.40;;;;;;4964233;28;20027;-91
2021/08/16 12:03:35;;;;;;;0.10;0.10;;;43.70;32.80;;;;;;4961597;28;20472;-91
2021/08/16 12:06:02;;;;;;;0.10;0.10;;;43.10;33.10;;;;;;4958842;28;20031;-90
2021/08/16 12:08:28;;;;;;;0.10;0.10;;;43.40;33.60;;;;;;4956849;28;20027;-90
2021/08/16 12:10:54;;;;;;;0.10;0.10;;;44.20;33.20;;;;;;4958177;28;20104;-93
2021/08/16 12:13:24;;;;;;;0.10;0.10;;;44.80;33.20;;;;;;4976506;28;20604;-91
2021/08/16 12:15:52;;;;;;;0.10;0.10;;;45.60;32.80;;;;;;4960274;28;20115;-90
2021/08/16 12:18:28;;;;;;;0.20;0.20;;;45.80;32.50;;;;;;4959267;28;20049;-90
2021/08/16 12:20:55;;;;;;;0.10;0.10;;;45.60;32.50;;;;;;4961144;28;20051;-93
2021/08/16 12:23:29;;;;;;;0.10;0.10;;;45.50;33.30;;;;;;4961587;28;20046;-89
2021/08/16 12:28:44;;;;;;;0.10;0.10;;;44.60;34.20;;;;;;4958310;29;20071;-88
2021/08/16 12:31:24;;;;;;;0.20;0.20;;;44.40;34.40;;;;;;4940786;29;20023;-90
2021/08/16 12:34:07;;;;;;;0.10;0.10;;;44.10;34.20;;;;;;4940179;29;20118;-89
2021/08/16 12:36:38;;;;;;;0.10;0.10;;;43.00;34.80;;;;;;4937157;29;20039;-88
2021/08/16 12:39:09;;;;;;;0.10;0.10;;;42.10;35.70;;;;;;4938496;29;20403;-89
2021/08/16 12:41:35;;;;;;;0.10;0.10;;;42.10;35.80;;;;;;4945843;29;20074;-89
2021/08/16 12:44:02;;;;;;;0.10;0.10;;;42.30;35.60;;;;;;4954673;29;20023;-89
2021/08/16 12:46:37;;;;;;;0.10;0.10;;;42.20;36.60;;;;;;4939066;29;20071;-87
2021/08/16 12:49:20;;;;;;;0.10;0.10;;;42.50;35.90;;;;;;4937801;29;20063;-90
2021/08/16 12:51:46;;;;;;;;;;;42.90;35.40;;;;;;4940131;29;20071;-90
2021/08/16 12:54:11;;;;;;;0.10;0.10;;;43.10;35.50;;;;;;4962913;29;19907;-88
2021/08/16 12:56:37;;;;;;;0.10;0.10;;;43.20;35.30;;;;;;4950586;29;20039;-89
2021/08/16 12:59:03;;;;;;;0.10;0.10;;;43.20;35.20;;;;;;4942809;29;20126;-91